createdAt,value
2023-12-30T00:00:40.478Z,8.00
2023-12-30T00:03:08.554Z,8.03
2023-12-30T00:05:36.666Z,8.05
2023-12-30T00:08:04.869Z,8.06
2023-12-30T00:10:32.859Z,8.04
2023-12-30T00:13:03.814Z,8.00
2023-12-30T00:15:32.175Z,7.97
2023-12-30T00:18:00.170Z,7.93
2023-12-30T00:20:28.111Z,7.93
2023-12-30T00:22:56.085Z,7.94
2023-12-30T00:25:24.056Z,7.92
2023-12-30T00:27:53.123Z,7.94
2023-12-30T00:30:21.233Z,7.91
2023-12-30T00:32:49.314Z,7.93
2023-12-30T00:35:17.449Z,7.96
2023-12-30T00:37:45.366Z,7.93
2023-12-30T00:40:14.991Z,7.94
2023-12-30T00:42:45.193Z,8.02
2023-12-30T00:45:13.128Z,8.06
2023-12-30T00:47:42.117Z,8.08
2023-12-30T00:50:10.260Z,8.14
2023-12-30T00:52:38.247Z,8.11
2023-12-30T00:55:06.653Z,8.11
2023-12-30T00:57:34.672Z,8.02
2023-12-30T01:00:02.692Z,8.02
2023-12-30T01:02:30.613Z,7.96
2023-12-30T01:04:59.410Z,7.94
2023-12-30T01:07:27.626Z,7.89
2023-12-30T01:09:55.698Z,7.80
2023-12-30T01:12:24.000Z,7.77
2023-12-30T01:14:51.971Z,7.75
2023-12-30T01:17:19.980Z,7.68
2023-12-30T01:19:48.051Z,7.65
2023-12-30T01:22:16.149Z,7.59
2023-12-30T01:24:44.106Z,7.54
2023-12-30T01:27:13.256Z,7.51
2023-12-30T01:29:41.267Z,7.54
2023-12-30T01:32:09.186Z,7.58
2023-12-30T01:34:37.362Z,7.53
2023-12-30T01:37:05.419Z,7.56
2023-12-30T01:39:33.436Z,7.55
2023-12-30T01:42:01.365Z,7.57
2023-12-30T01:44:29.387Z,7.53
2023-12-30T01:46:57.630Z,7.53
2023-12-30T01:49:25.658Z,7.50
2023-12-30T01:51:54.052Z,7.50
2023-12-30T01:54:22.762Z,7.45
2023-12-30T01:56:51.034Z,7.45
2023-12-30T01:59:20.227Z,7.45
2023-12-30T02:01:48.340Z,7.45
2023-12-30T02:04:16.423Z,7.42
2023-12-30T02:06:44.351Z,7.44
2023-12-30T02:09:13.847Z,7.42
2023-12-30T02:11:41.930Z,7.42
2023-12-30T02:14:25.712Z,7.44
2023-12-30T02:16:53.853Z,7.40
2023-12-30T02:19:22.104Z,7.42
2023-12-30T02:21:50.921Z,7.35
2023-12-30T02:24:21.901Z,7.42
2023-12-30T02:26:49.967Z,7.51
2023-12-30T02:29:17.880Z,7.47
2023-12-30T02:31:48.904Z,7.51
2023-12-30T02:34:18.933Z,7.55
2023-12-30T02:36:48.570Z,7.57
2023-12-30T02:39:16.821Z,7.60
2023-12-30T02:41:44.749Z,7.61
2023-12-30T02:44:16.640Z,7.59
2023-12-30T02:46:44.562Z,7.59
2023-12-30T02:49:13.284Z,7.58
2023-12-30T02:51:41.264Z,7.56
2023-12-30T02:54:09.249Z,7.57
2023-12-30T02:56:37.251Z,7.58
2023-12-30T02:59:05.301Z,7.54
2023-12-30T03:01:33.927Z,7.51
2023-12-30T03:04:02.441Z,7.48
2023-12-30T03:06:31.446Z,7.50
2023-12-30T03:09:00.413Z,7.43
2023-12-30T03:11:28.990Z,7.43
2023-12-30T03:13:56.938Z,7.36
2023-12-30T03:16:25.017Z,7.34
2023-12-30T03:18:53.241Z,7.32
2023-12-30T03:21:21.980Z,7.31
2023-12-30T03:23:50.031Z,7.26
2023-12-30T03:26:18.224Z,7.27
2023-12-30T03:28:46.116Z,7.28
2023-12-30T03:31:25.410Z,7.29
2023-12-30T03:33:53.978Z,7.26
2023-12-30T03:36:22.316Z,7.24
2023-12-30T03:38:53.674Z,7.22
2023-12-30T03:41:22.118Z,7.22
2023-12-30T03:43:50.744Z,7.22
2023-12-30T03:46:19.533Z,7.22
2023-12-30T03:48:47.474Z,7.22
2023-12-30T03:51:15.515Z,7.18
2023-12-30T03:53:43.497Z,7.12
2023-12-30T03:56:13.134Z,7.14
2023-12-30T03:58:41.263Z,7.10
2023-12-30T04:01:09.425Z,7.09
2023-12-30T04:03:37.493Z,7.03
2023-12-30T04:06:05.526Z,6.99
2023-12-30T04:08:33.756Z,6.99
2023-12-30T04:11:01.823Z,6.95
2023-12-30T04:13:29.942Z,6.94
2023-12-30T04:15:58.172Z,6.90
2023-12-30T04:18:26.314Z,6.92
2023-12-30T04:20:54.457Z,6.86
2023-12-30T04:23:22.357Z,6.88
2023-12-30T04:25:50.502Z,6.88
2023-12-30T04:28:18.514Z,6.81
2023-12-30T04:30:46.567Z,6.76
2023-12-30T04:33:15.198Z,6.74
2023-12-30T04:35:43.234Z,6.77
2023-12-30T04:38:11.307Z,6.75
2023-12-30T04:40:39.466Z,6.79
2023-12-30T04:43:07.774Z,6.72
2023-12-30T04:45:35.751Z,6.69
2023-12-30T04:48:03.983Z,6.68
2023-12-30T04:50:33.564Z,6.69
2023-12-30T04:53:01.751Z,6.73
2023-12-30T04:55:30.483Z,6.70
2023-12-30T04:57:58.782Z,6.70
2023-12-30T05:00:26.943Z,6.68
2023-12-30T05:02:54.918Z,6.68
2023-12-30T05:05:22.938Z,6.73
2023-12-30T05:07:50.935Z,6.73
2023-12-30T05:10:19.053Z,6.75
2023-12-30T05:12:47.095Z,6.74
2023-12-30T05:15:15.280Z,6.77
2023-12-30T05:17:43.960Z,6.78
2023-12-30T05:20:13.600Z,6.82
2023-12-30T05:22:42.326Z,6.89
2023-12-30T05:25:10.780Z,7.00
2023-12-30T05:27:39.191Z,7.07
2023-12-30T05:30:10.814Z,7.13
2023-12-30T05:32:39.167Z,7.16
2023-12-30T05:35:07.483Z,7.21
2023-12-30T05:37:35.539Z,7.25
2023-12-30T05:40:04.648Z,7.28
2023-12-30T05:42:32.661Z,7.36
2023-12-30T05:45:00.622Z,7.35
2023-12-30T05:47:28.613Z,7.39
2023-12-30T05:49:56.540Z,7.42
2023-12-30T05:52:24.638Z,7.50
2023-12-30T05:54:52.707Z,7.49
2023-12-30T05:57:20.696Z,7.51
2023-12-30T05:59:48.604Z,7.55
2023-12-30T06:02:16.558Z,7.62
2023-12-30T06:04:44.544Z,7.65
2023-12-30T06:07:12.721Z,7.71
2023-12-30T06:09:40.716Z,7.77
2023-12-30T06:12:14.018Z,7.75
2023-12-30T06:14:41.966Z,7.76
2023-12-30T06:17:09.900Z,7.79
2023-12-30T06:19:37.835Z,7.77
2023-12-30T06:22:06.408Z,7.75
2023-12-30T06:24:35.084Z,7.75
2023-12-30T06:27:03.155Z,7.75
2023-12-30T06:29:33.227Z,7.73
2023-12-30T06:32:01.596Z,7.73
2023-12-30T06:34:29.602Z,7.71
2023-12-30T06:36:57.666Z,7.72
2023-12-30T06:39:25.664Z,7.70
2023-12-30T06:41:53.641Z,7.70
2023-12-30T06:44:21.605Z,7.67
2023-12-30T06:46:49.652Z,7.64
2023-12-30T06:49:18.108Z,7.64
2023-12-30T06:51:46.390Z,7.62
2023-12-30T06:54:14.615Z,7.56
2023-12-30T06:56:44.553Z,7.53
2023-12-30T06:59:15.660Z,7.47
2023-12-30T07:01:43.818Z,7.38
2023-12-30T07:04:11.896Z,7.35
2023-12-30T07:06:39.880Z,7.31
2023-12-30T07:09:08.377Z,7.31
2023-12-30T07:11:36.711Z,7.28
2023-12-30T07:14:04.686Z,7.31
2023-12-30T07:16:32.704Z,7.31
2023-12-30T07:19:00.779Z,7.29
2023-12-30T07:21:28.773Z,7.27
2023-12-30T07:23:56.714Z,7.26
2023-12-30T07:26:24.706Z,7.23
2023-12-30T07:28:52.665Z,7.23
2023-12-30T07:31:20.660Z,7.24
2023-12-30T07:33:48.789Z,7.24
2023-12-30T07:36:16.931Z,7.26
2023-12-30T07:38:44.894Z,7.24
2023-12-30T07:41:15.724Z,7.24
2023-12-30T07:43:43.753Z,7.30
2023-12-30T07:46:12.336Z,7.31
2023-12-30T07:48:40.268Z,7.32
2023-12-30T07:51:08.388Z,7.31
2023-12-30T07:53:36.476Z,7.40
2023-12-30T07:56:04.911Z,7.39
2023-12-30T07:58:32.953Z,7.40
2023-12-30T08:01:01.120Z,7.41
2023-12-30T08:03:29.123Z,7.48
2023-12-30T08:05:57.374Z,7.58
2023-12-30T08:08:25.354Z,7.60
2023-12-30T08:10:53.520Z,7.62
2023-12-30T08:13:21.539Z,7.65
2023-12-30T08:15:49.464Z,7.69
2023-12-30T08:18:17.521Z,7.78
2023-12-30T08:20:45.726Z,7.87
2023-12-30T08:23:13.790Z,7.93
2023-12-30T08:25:41.900Z,7.96
2023-12-30T08:28:09.970Z,8.01
2023-12-30T08:30:38.431Z,8.09
2023-12-30T08:33:10.035Z,8.12
2023-12-30T08:35:38.259Z,8.09
2023-12-30T08:38:06.163Z,8.12
2023-12-30T08:40:36.794Z,8.19
2023-12-30T08:43:05.782Z,8.22
2023-12-30T08:45:34.145Z,8.30
2023-12-30T08:48:02.516Z,8.33
2023-12-30T08:50:31.507Z,8.35
2023-12-30T08:52:59.714Z,8.35
2023-12-30T08:55:27.829Z,8.44
2023-12-30T08:57:55.897Z,8.51
2023-12-30T09:00:23.984Z,8.48
2023-12-30T09:02:56.686Z,8.56
2023-12-30T09:05:24.954Z,8.53
2023-12-30T09:07:53.017Z,8.51
2023-12-30T09:10:21.218Z,8.53
2023-12-30T09:12:49.375Z,8.54
2023-12-30T09:15:17.308Z,8.60
2023-12-30T09:17:45.819Z,8.64
2023-12-30T09:20:13.889Z,8.65
2023-12-30T09:22:42.083Z,8.65
2023-12-30T09:25:10.697Z,8.67
2023-12-30T09:27:38.703Z,8.67
2023-12-30T09:30:07.512Z,8.66
2023-12-30T09:32:35.721Z,8.72
2023-12-30T09:35:04.355Z,8.72
2023-12-30T09:37:32.864Z,8.80
2023-12-30T09:40:01.123Z,8.84
2023-12-30T09:42:29.137Z,8.79
2023-12-30T09:44:57.162Z,8.83
2023-12-30T09:47:26.149Z,8.81
2023-12-30T09:49:56.812Z,8.81
2023-12-30T09:52:24.970Z,8.83
2023-12-30T09:54:52.890Z,8.86
2023-12-30T09:57:20.817Z,8.98
2023-12-30T09:59:49.417Z,8.98
2023-12-30T10:02:17.426Z,9.12
2023-12-30T10:04:46.032Z,9.11
2023-12-30T10:07:14.885Z,9.10
2023-12-30T10:09:42.923Z,9.06
2023-12-30T10:12:11.556Z,9.10
2023-12-30T10:14:42.694Z,9.12
2023-12-30T10:17:10.863Z,9.18
2023-12-30T10:19:39.240Z,9.14
2023-12-30T10:22:07.288Z,9.21
2023-12-30T10:24:35.304Z,9.30
2023-12-30T10:27:05.792Z,9.29
2023-12-30T10:29:46.041Z,9.39
2023-12-30T10:32:22.257Z,9.48
2023-12-30T10:34:50.297Z,9.60
2023-12-30T10:37:18.370Z,9.50
2023-12-30T10:39:46.511Z,9.58
2023-12-30T10:42:15.021Z,9.56
2023-12-30T10:44:43.379Z,9.64
2023-12-30T10:47:15.508Z,9.70
2023-12-30T10:49:52.213Z,9.68
2023-12-30T10:52:24.749Z,9.86
2023-12-30T10:55:01.411Z,9.96
2023-12-30T10:57:33.252Z,9.99
2023-12-30T11:00:05.714Z,10.03
2023-12-30T11:02:34.253Z,10.21
2023-12-30T11:05:03.757Z,10.25
2023-12-30T11:07:32.601Z,10.39
2023-12-30T11:10:00.712Z,10.42
2023-12-30T11:12:29.041Z,10.43
2023-12-30T11:14:57.149Z,10.49
2023-12-30T11:17:35.547Z,10.57
2023-12-30T11:20:31.839Z,10.56
2023-12-30T11:23:02.521Z,10.62
2023-12-30T11:25:35.919Z,10.67
2023-12-30T11:28:23.286Z,10.70
2023-12-30T11:31:00.483Z,10.57
2023-12-30T11:33:28.968Z,10.59
2023-12-30T11:35:57.508Z,10.51
2023-12-30T11:38:25.720Z,10.44
2023-12-30T11:40:56.035Z,10.41
2023-12-30T11:43:26.566Z,10.41
2023-12-30T11:45:55.170Z,10.57
2023-12-30T11:48:23.421Z,10.62
2023-12-30T11:50:55.384Z,10.60
2023-12-30T11:53:23.622Z,10.51
2023-12-30T11:55:51.866Z,10.60
2023-12-30T11:58:19.950Z,10.74
2023-12-30T12:00:48.114Z,10.77
2023-12-30T12:03:16.085Z,10.86
2023-12-30T12:05:44.034Z,10.88
2023-12-30T12:08:12.608Z,10.92
2023-12-30T12:10:40.665Z,10.89
2023-12-30T12:13:11.210Z,11.03
2023-12-30T12:15:43.392Z,11.02
2023-12-30T12:18:11.686Z,10.96
2023-12-30T12:20:39.928Z,11.04
2023-12-30T12:23:08.050Z,11.01
2023-12-30T12:25:39.391Z,11.03
2023-12-30T12:28:11.326Z,11.06
2023-12-30T12:30:40.095Z,11.06
2023-12-30T12:33:09.925Z,11.05
2023-12-30T12:35:38.379Z,10.96
2023-12-30T12:38:06.604Z,10.96
2023-12-30T12:40:34.773Z,11.03
2023-12-30T12:43:03.261Z,11.00
2023-12-30T12:45:31.829Z,11.06
2023-12-30T12:48:00.712Z,11.12
2023-12-30T12:50:29.018Z,11.25
2023-12-30T12:52:57.144Z,11.19
2023-12-30T12:55:25.152Z,11.27
2023-12-30T12:57:53.094Z,11.22
2023-12-30T13:00:21.072Z,11.24
2023-12-30T13:02:49.189Z,11.15
2023-12-30T13:05:21.028Z,11.25
2023-12-30T13:07:49.737Z,11.26
2023-12-30T13:10:32.911Z,11.25
2023-12-30T13:13:01.496Z,11.16
2023-12-30T13:15:30.690Z,11.22
2023-12-30T13:18:00.759Z,11.14
2023-12-30T13:20:29.054Z,11.13
2023-12-30T13:22:58.478Z,11.17
2023-12-30T13:25:29.508Z,11.08
2023-12-30T13:27:57.595Z,11.12
2023-12-30T13:30:25.544Z,11.09
2023-12-30T13:33:02.461Z,11.07
2023-12-30T13:35:35.752Z,11.02
2023-12-30T13:38:11.739Z,11.07
2023-12-30T13:40:43.831Z,11.08
2023-12-30T13:43:12.146Z,11.14
2023-12-30T13:45:47.709Z,11.18
2023-12-30T13:48:16.067Z,11.22
2023-12-30T13:50:53.627Z,11.21
2023-12-30T13:53:25.224Z,11.12
2023-12-30T13:56:06.293Z,11.07
2023-12-30T13:58:34.668Z,11.03
2023-12-30T14:01:02.740Z,11.05
2023-12-30T14:03:30.912Z,11.02
2023-12-30T14:05:59.934Z,10.98
2023-12-30T14:08:43.092Z,11.02
2023-12-30T14:11:22.492Z,11.00
2023-12-30T14:13:52.752Z,10.97
2023-12-30T14:16:20.976Z,10.94
2023-12-30T14:18:49.112Z,10.96
2023-12-30T14:21:18.119Z,10.99
2023-12-30T14:23:46.179Z,10.95
2023-12-30T14:26:14.121Z,11.01
2023-12-30T14:28:42.190Z,11.07
2023-12-30T14:31:12.748Z,11.04
2023-12-30T14:33:40.799Z,11.10
2023-12-30T14:36:09.204Z,11.08
2023-12-30T14:38:37.171Z,11.05
2023-12-30T14:41:05.077Z,11.10
2023-12-30T14:43:33.501Z,11.06
2023-12-30T14:46:01.553Z,11.16
2023-12-30T14:48:29.721Z,11.16
2023-12-30T14:50:57.628Z,11.03
2023-12-30T14:53:25.593Z,10.98
2023-12-30T14:55:53.545Z,11.04
2023-12-30T14:58:21.626Z,11.00
2023-12-30T15:00:49.712Z,11.01
2023-12-30T15:03:17.684Z,11.05
2023-12-30T15:05:45.750Z,11.05
2023-12-30T15:08:13.900Z,11.10
2023-12-30T15:10:41.814Z,11.03
2023-12-30T15:13:09.792Z,10.99
2023-12-30T15:15:38.221Z,10.88
2023-12-30T15:18:08.113Z,10.85
2023-12-30T15:20:36.123Z,10.82
2023-12-30T15:23:04.611Z,10.78
2023-12-30T15:25:34.730Z,10.71
2023-12-30T15:28:04.981Z,10.71
2023-12-30T15:30:34.436Z,10.67
2023-12-30T15:33:03.480Z,10.65
2023-12-30T15:35:31.795Z,10.59
2023-12-30T15:37:59.851Z,10.59
2023-12-30T15:40:27.848Z,10.56
2023-12-30T15:42:55.850Z,10.54
2023-12-30T15:45:24.271Z,10.51
2023-12-30T15:47:52.748Z,10.54
2023-12-30T15:50:20.854Z,10.58
2023-12-30T15:52:48.923Z,10.59
2023-12-30T15:55:16.922Z,10.56
2023-12-30T15:57:44.985Z,10.59
2023-12-30T16:00:14.077Z,10.58
2023-12-30T16:02:45.077Z,10.60
2023-12-30T16:05:13.249Z,10.56
2023-12-30T16:07:41.350Z,10.56
2023-12-30T16:10:10.182Z,10.58
2023-12-30T16:12:38.216Z,10.58
2023-12-30T16:15:06.889Z,10.53
2023-12-30T16:17:34.874Z,10.59
2023-12-30T16:20:03.771Z,10.59
2023-12-30T16:22:31.703Z,10.63
2023-12-30T16:24:59.862Z,10.67
2023-12-30T16:27:27.802Z,10.67
2023-12-30T16:29:56.052Z,10.64
2023-12-30T16:32:24.416Z,10.71
2023-12-30T16:34:52.917Z,10.73
2023-12-30T16:37:26.921Z,10.74
2023-12-30T16:39:56.122Z,10.77
2023-12-30T16:42:24.101Z,10.71
2023-12-30T16:44:52.187Z,10.74
2023-12-30T16:47:20.184Z,10.74
2023-12-30T16:49:48.259Z,10.74
2023-12-30T16:52:16.224Z,10.74
2023-12-30T16:54:44.273Z,10.72
2023-12-30T16:57:12.464Z,10.76
2023-12-30T16:59:40.470Z,10.74
2023-12-30T17:02:08.763Z,10.74
2023-12-30T17:04:36.972Z,10.78
2023-12-30T17:07:05.141Z,10.78
2023-12-30T17:09:33.540Z,10.77
2023-12-30T17:12:01.462Z,10.77
2023-12-30T17:14:29.398Z,10.78
2023-12-30T17:16:57.370Z,10.83
2023-12-30T17:19:25.645Z,10.79
2023-12-30T17:21:53.807Z,10.79
2023-12-30T17:24:21.918Z,10.81
2023-12-30T17:26:49.931Z,10.77
2023-12-30T17:29:17.938Z,10.83
2023-12-30T17:31:46.001Z,10.83
2023-12-30T17:34:14.258Z,10.79
2023-12-30T17:36:42.193Z,10.77
2023-12-30T17:39:10.118Z,10.75
2023-12-30T17:41:38.085Z,10.76
2023-12-30T17:44:06.236Z,10.71
2023-12-30T17:46:35.316Z,10.74
2023-12-30T17:49:03.684Z,10.76
2023-12-30T17:51:31.785Z,10.73
2023-12-30T17:53:59.707Z,10.72
2023-12-30T17:56:29.844Z,10.72
2023-12-30T17:58:57.849Z,10.65
2023-12-30T18:01:26.644Z,10.63
2023-12-30T18:03:54.904Z,10.55
2023-12-30T18:06:22.966Z,10.49
2023-12-30T18:08:51.076Z,10.46
2023-12-30T18:11:19.645Z,10.47
2023-12-30T18:13:47.636Z,10.48
2023-12-30T18:16:15.815Z,10.46
2023-12-30T18:18:43.829Z,10.46
2023-12-30T18:21:12.020Z,10.42
2023-12-30T18:23:39.967Z,10.38
2023-12-30T18:26:12.570Z,10.42
2023-12-30T18:28:41.095Z,10.41
2023-12-30T18:31:09.150Z,10.43
2023-12-30T18:33:37.268Z,10.39
2023-12-30T18:36:05.829Z,10.38
2023-12-30T18:38:34.209Z,10.37
2023-12-30T18:41:02.148Z,10.43
2023-12-30T18:43:30.088Z,10.50
2023-12-30T18:46:00.547Z,10.49
2023-12-30T18:48:28.591Z,10.50
2023-12-30T18:50:56.585Z,10.58
2023-12-30T18:53:24.623Z,10.62
2023-12-30T18:55:52.820Z,10.71
2023-12-30T18:58:21.427Z,10.70
2023-12-30T19:00:50.624Z,10.74
2023-12-30T19:03:18.698Z,10.70
2023-12-30T19:05:46.779Z,10.74
2023-12-30T19:08:14.767Z,10.78
2023-12-30T19:10:42.806Z,10.77
2023-12-30T19:13:10.869Z,10.82
2023-12-30T19:15:38.948Z,10.82
2023-12-30T19:18:07.038Z,10.86
2023-12-30T19:20:35.053Z,10.89
2023-12-30T19:23:03.209Z,10.89
2023-12-30T19:25:31.346Z,10.88
2023-12-30T19:28:00.160Z,10.87
2023-12-30T19:30:28.248Z,10.87
2023-12-30T19:32:56.319Z,10.85
2023-12-30T19:35:24.661Z,10.85
2023-12-30T19:37:53.018Z,10.88
2023-12-30T19:40:21.044Z,10.94
2023-12-30T19:42:48.934Z,10.94
2023-12-30T19:45:16.907Z,10.90
2023-12-30T19:47:44.818Z,10.88
2023-12-30T19:50:12.797Z,10.84
2023-12-30T19:52:41.405Z,10.80
2023-12-30T19:55:09.658Z,10.82
2023-12-30T19:57:38.765Z,10.81
2023-12-30T20:00:07.900Z,10.74
2023-12-30T20:02:35.851Z,10.74
2023-12-30T20:05:04.876Z,10.78
2023-12-30T20:07:32.895Z,10.75
2023-12-30T20:10:01.778Z,10.67
2023-12-30T20:12:29.924Z,10.69
2023-12-30T20:14:57.948Z,10.63
2023-12-30T20:17:25.902Z,10.65
2023-12-30T20:19:53.987Z,10.63
2023-12-30T20:22:24.362Z,10.60
2023-12-30T20:24:53.406Z,10.65
2023-12-30T20:27:21.434Z,10.63
2023-12-30T20:29:50.503Z,10.71
2023-12-30T20:32:18.610Z,10.72
2023-12-30T20:34:49.413Z,10.73
2023-12-30T20:37:19.385Z,10.75
2023-12-30T20:39:47.446Z,10.74
2023-12-30T20:42:16.509Z,10.73
2023-12-30T20:44:44.429Z,10.68
2023-12-30T20:47:13.537Z,10.70
2023-12-30T20:49:45.251Z,10.73
2023-12-30T20:52:14.186Z,10.76
2023-12-30T20:54:42.567Z,10.84
2023-12-30T20:57:10.672Z,10.87
2023-12-30T20:59:38.584Z,10.87
2023-12-30T21:02:06.944Z,10.91
2023-12-30T21:04:36.479Z,10.92
2023-12-30T21:07:04.977Z,10.90
2023-12-30T21:09:34.465Z,10.95
2023-12-30T21:12:03.622Z,10.88
2023-12-30T21:14:31.508Z,10.87
2023-12-30T21:17:02.355Z,10.87
2023-12-30T21:19:33.672Z,10.88
2023-12-30T21:22:02.318Z,10.91
2023-12-30T21:24:30.274Z,10.94
2023-12-30T21:26:58.360Z,10.98
2023-12-30T21:29:26.286Z,10.94
2023-12-30T21:31:55.803Z,10.94
2023-12-30T21:34:23.756Z,10.91
2023-12-30T21:36:52.320Z,10.92
2023-12-30T21:39:20.218Z,10.93
2023-12-30T21:41:48.203Z,10.92
2023-12-30T21:44:16.138Z,10.98
2023-12-30T21:46:45.244Z,10.96
2023-12-30T21:49:16.030Z,10.90
2023-12-30T21:51:45.402Z,10.91
2023-12-30T21:54:14.762Z,10.92
2023-12-30T21:56:43.459Z,10.93
2023-12-30T21:59:11.593Z,10.91
2023-12-30T22:01:39.949Z,10.93
2023-12-30T22:04:08.171Z,10.90
2023-12-30T22:06:36.411Z,10.92
2023-12-30T22:09:04.406Z,10.91
2023-12-30T22:11:32.454Z,10.87
2023-12-30T22:14:00.464Z,10.86
2023-12-30T22:16:28.523Z,10.85
2023-12-30T22:18:56.675Z,10.84
2023-12-30T22:21:24.731Z,10.89
2023-12-30T22:23:52.684Z,10.85
2023-12-30T22:26:20.919Z,10.86
2023-12-30T22:28:49.012Z,10.83
2023-12-30T22:31:17.110Z,10.85
2023-12-30T22:33:45.094Z,10.82
2023-12-30T22:36:13.185Z,10.83
2023-12-30T22:38:41.074Z,10.83
2023-12-30T22:41:09.090Z,10.76
2023-12-30T22:43:37.292Z,10.77
2023-12-30T22:46:05.934Z,10.80
2023-12-30T22:48:34.207Z,10.82
2023-12-30T22:51:02.364Z,10.67
2023-12-30T22:53:30.371Z,10.68
2023-12-30T22:55:58.537Z,10.60
2023-12-30T22:58:26.492Z,10.61
2023-12-30T23:00:54.505Z,10.56
2023-12-30T23:03:25.209Z,10.53
2023-12-30T23:05:53.284Z,10.56
2023-12-30T23:08:21.210Z,10.57
2023-12-30T23:10:49.188Z,10.60
2023-12-30T23:13:20.192Z,10.62
2023-12-30T23:15:48.437Z,10.68
2023-12-30T23:18:16.722Z,10.69
2023-12-30T23:20:44.899Z,10.66
2023-12-30T23:23:12.980Z,10.67
2023-12-30T23:25:40.967Z,10.71
2023-12-30T23:28:09.006Z,10.75
2023-12-30T23:30:37.151Z,10.68
2023-12-30T23:33:05.653Z,10.69
2023-12-30T23:35:33.995Z,10.69
2023-12-30T23:38:02.008Z,10.61
2023-12-30T23:40:29.927Z,10.61
2023-12-30T23:42:57.892Z,10.62
2023-12-30T23:45:25.853Z,10.57
2023-12-30T23:47:53.911Z,10.55
2023-12-30T23:50:21.879Z,10.57
2023-12-30T23:52:49.915Z,10.50
2023-12-30T23:55:18.073Z,10.45
2023-12-30T23:57:46.013Z,10.44
